< < Back
Terminal Aerodrome Forecast


Current Version              Previous Versions:   1  2  3  4  5  6  7  8  9  

Terminal Aerodrome Forecast

545
FTUS42 KFFC 292300
TAFMCN
TAF
KMCN 292323Z 3000/3024 25006KT P6SM VCSH FEW025 SCT040 BKN080
      TEMPO 3000/3002 SCT025 BKN040
     FM300200 27007KT P6SM SCT045 BKN100
     FM300500 33006KT P6SM SCT100
     FM301400 36009KT P6SM SKC=



Latest METAR

247
SAUS80 KWBC 301600 RRA
MTRMCN
METAR KMCN 301553Z 04010KT 10SM CLR 18/08 A3005 RMK AO2 SLP171
T01780078


USA.gov is the U.S. government's official web portal to all federal, state and local government web resources and services.